sensor_id;sensor_type;location;lat;lon;timestamp;P1;durP1;ratioP1;P2;durP2;ratioP2
78013;SDS011;67222;50.182;8.734;2023-06-19T04:31:30;8.60;;;6.28;;
78013;SDS011;67222;50.182;8.734;2023-06-19T04:33:55;6.45;;;5.30;;
78013;SDS011;67222;50.182;8.734;2023-06-19T04:36:22;7.47;;;6.00;;
78013;SDS011;67222;50.182;8.734;2023-06-19T04:38:48;7.68;;;6.22;;
78013;SDS011;67222;50.182;8.734;2023-06-19T04:41:13;8.13;;;6.50;;
78013;SDS011;67222;50.182;8.734;2023-06-19T04:43:38;7.27;;;6.47;;
78013;SDS011;67222;50.182;8.734;2023-06-19T04:46:06;6.63;;;5.93;;
78013;SDS011;67222;50.182;8.734;2023-06-19T04:48:31;7.25;;;6.07;;
78013;SDS011;67222;50.182;8.734;2023-06-19T04:50:57;6.77;;;6.03;;
78013;SDS011;67222;50.182;8.734;2023-06-19T04:53:22;6.93;;;6.20;;
78013;SDS011;67222;50.182;8.734;2023-06-19T04:55:47;7.50;;;6.05;;
78013;SDS011;67222;50.182;8.734;2023-06-19T04:58:14;7.05;;;5.10;;
78013;SDS011;67222;50.182;8.734;2023-06-19T05:00:39;7.47;;;5.57;;
78013;SDS011;67222;50.182;8.734;2023-06-19T05:03:05;8.00;;;5.30;;
78013;SDS011;67222;50.182;8.734;2023-06-19T05:05:30;6.43;;;5.53;;
78013;SDS011;67222;50.182;8.734;2023-06-19T05:07:55;8.13;;;5.70;;
78013;SDS011;67222;50.182;8.734;2023-06-19T05:10:21;6.38;;;5.00;;
78013;SDS011;67222;50.182;8.734;2023-06-19T05:12:46;7.03;;;5.27;;
78013;SDS011;67222;50.182;8.734;2023-06-19T05:15:11;6.77;;;5.57;;
78013;SDS011;67222;50.182;8.734;2023-06-19T05:17:37;6.53;;;5.27;;
78013;SDS011;67222;50.182;8.734;2023-06-19T05:20:04;6.72;;;5.03;;
78013;SDS011;67222;50.182;8.734;2023-06-19T05:22:32;5.82;;;4.85;;
78013;SDS011;67222;50.182;8.734;2023-06-19T05:24:58;5.40;;;4.60;;
78013;SDS011;67222;50.182;8.734;2023-06-19T05:27:24;6.20;;;4.80;;
78013;SDS011;67222;50.182;8.734;2023-06-19T05:29:49;5.63;;;4.60;;
78013;SDS011;67222;50.182;8.734;2023-06-19T05:32:14;6.67;;;5.00;;
78013;SDS011;67222;50.182;8.734;2023-06-19T05:34:40;6.00;;;4.67;;
78013;SDS011;67222;50.182;8.734;2023-06-19T05:37:05;7.50;;;5.20;;
78013;SDS011;67222;50.182;8.734;2023-06-19T05:39:30;6.97;;;4.90;;
78013;SDS011;67222;50.182;8.734;2023-06-19T05:41:56;5.80;;;4.80;;
78013;SDS011;67222;50.182;8.734;2023-06-19T05:44:21;6.75;;;4.57;;
78013;SDS011;67222;50.182;8.734;2023-06-19T05:46:46;6.03;;;4.67;;
78013;SDS011;67222;50.182;8.734;2023-06-19T05:49:12;7.03;;;4.53;;
78013;SDS011;67222;50.182;8.734;2023-06-19T05:51:37;5.55;;;4.45;;
78013;SDS011;67222;50.182;8.734;2023-06-19T05:54:02;5.57;;;4.40;;
78013;SDS011;67222;50.182;8.734;2023-06-19T05:56:31;5.25;;;4.35;;
78013;SDS011;67222;50.182;8.734;2023-06-19T05:59:01;5.57;;;4.18;;
78013;SDS011;67222;50.182;8.734;2023-06-19T06:01:27;5.40;;;4.18;;
78013;SDS011;67222;50.182;8.734;2023-06-19T06:03:55;5.53;;;4.22;;
78013;SDS011;67222;50.182;8.734;2023-06-19T06:06:22;6.65;;;4.80;;
78013;SDS011;67222;50.182;8.734;2023-06-19T06:08:48;6.93;;;4.32;;
78013;SDS011;67222;50.182;8.734;2023-06-19T06:11:14;4.82;;;4.15;;
78013;SDS011;67222;50.182;8.734;2023-06-19T06:13:39;5.22;;;4.32;;
78013;SDS011;67222;50.182;8.734;2023-06-19T06:16:04;4.77;;;4.10;;
78013;SDS011;67222;50.182;8.734;2023-06-19T06:18:30;5.27;;;3.83;;
78013;SDS011;67222;50.182;8.734;2023-06-19T06:20:55;5.57;;;3.97;;
78013;SDS011;67222;50.182;8.734;2023-06-19T06:23:20;5.43;;;4.23;;
78013;SDS011;67222;50.182;8.734;2023-06-19T06:25:46;7.43;;;4.10;;
78013;SDS011;67222;50.182;8.734;2023-06-19T06:28:11;5.30;;;3.83;;
78013;SDS011;67222;50.182;8.734;2023-06-19T06:30:37;4.63;;;3.63;;
78013;SDS011;67222;50.182;8.734;2023-06-19T06:33:03;7.32;;;3.72;;
78013;SDS011;67222;50.182;8.734;2023-06-19T06:35:29;5.60;;;3.38;;
78013;SDS011;67222;50.182;8.734;2023-06-19T06:37:54;4.45;;;3.60;;
78013;SDS011;67222;50.182;8.734;2023-06-19T06:40:20;5.95;;;3.70;;
78013;SDS011;67222;50.182;8.734;2023-06-19T06:42:45;6.97;;;4.22;;
78013;SDS011;67222;50.182;8.734;2023-06-19T06:45:12;5.43;;;3.58;;
78013;SDS011;67222;50.182;8.734;2023-06-19T06:47:37;4.93;;;3.70;;
78013;SDS011;67222;50.182;8.734;2023-06-19T06:50:04;5.15;;;3.47;;
78013;SDS011;67222;50.182;8.734;2023-06-19T06:52:30;5.80;;;3.70;;
78013;SDS011;67222;50.182;8.734;2023-06-19T06:54:56;4.47;;;3.67;;
78013;SDS011;67222;50.182;8.734;2023-06-19T06:57:22;4.18;;;3.10;;
78013;SDS011;67222;50.182;8.734;2023-06-19T06:59:47;5.50;;;3.50;;
78013;SDS011;67222;50.182;8.734;2023-06-19T07:02:12;5.33;;;3.67;;
78013;SDS011;67222;50.182;8.734;2023-06-19T07:04:38;5.57;;;3.65;;
78013;SDS011;67222;50.182;8.734;2023-06-19T07:07:03;4.30;;;3.50;;
78013;SDS011;67222;50.182;8.734;2023-06-19T07:09:30;4.25;;;3.58;;
78013;SDS011;67222;50.182;8.734;2023-06-19T07:11:56;4.80;;;3.55;;
78013;SDS011;67222;50.182;8.734;2023-06-19T07:14:21;4.38;;;3.63;;
78013;SDS011;67222;50.182;8.734;2023-06-19T07:16:47;7.30;;;3.55;;
78013;SDS011;67222;50.182;8.734;2023-06-19T07:19:13;5.20;;;3.80;;
78013;SDS011;67222;50.182;8.734;2023-06-19T07:21:39;6.80;;;3.77;;
78013;SDS011;67222;50.182;8.734;2023-06-19T07:24:05;6.93;;;3.70;;
78013;SDS011;67222;50.182;8.734;2023-06-19T07:26:31;6.93;;;4.13;;
78013;SDS011;67222;50.182;8.734;2023-06-19T07:28:56;5.65;;;3.63;;
78013;SDS011;67222;50.182;8.734;2023-06-19T07:31:22;5.35;;;3.35;;
78013;SDS011;67222;50.182;8.734;2023-06-19T07:33:47;4.40;;;3.45;;
78013;SDS011;67222;50.182;8.734;2023-06-19T07:36:13;5.85;;;3.55;;
78013;SDS011;67222;50.182;8.734;2023-06-19T07:38:42;5.50;;;3.53;;
78013;SDS011;67222;50.182;8.734;2023-06-19T07:41:08;4.07;;;3.20;;
78013;SDS011;67222;50.182;8.734;2023-06-19T07:43:35;7.05;;;4.03;;
78013;SDS011;67222;50.182;8.734;2023-06-19T07:46:00;4.28;;;3.20;;
78013;SDS011;67222;50.182;8.734;2023-06-19T07:48:26;5.07;;;3.70;;
78013;SDS011;67222;50.182;8.734;2023-06-19T07:50:52;5.38;;;2.92;;
78013;SDS011;67222;50.182;8.734;2023-06-19T07:53:18;5.03;;;3.80;;
78013;SDS011;67222;50.182;8.734;2023-06-19T07:55:43;5.90;;;3.50;;
78013;SDS011;67222;50.182;8.734;2023-06-19T07:58:09;4.63;;;3.50;;
78013;SDS011;67222;50.182;8.734;2023-06-19T08:00:34;5.50;;;3.40;;
78013;SDS011;67222;50.182;8.734;2023-06-19T08:03:00;7.03;;;3.35;;
78013;SDS011;67222;50.182;8.734;2023-06-19T08:05:25;5.17;;;3.57;;
78013;SDS011;67222;50.182;8.734;2023-06-19T08:07:51;5.13;;;3.40;;
78013;SDS011;67222;50.182;8.734;2023-06-19T08:10:16;4.70;;;3.40;;
78013;SDS011;67222;50.182;8.734;2023-06-19T08:12:42;5.63;;;3.73;;
78013;SDS011;67222;50.182;8.734;2023-06-19T08:15:07;4.55;;;3.42;;
78013;SDS011;67222;50.182;8.734;2023-06-19T08:17:33;4.45;;;3.30;;
78013;SDS011;67222;50.182;8.734;2023-06-19T08:19:59;4.45;;;3.17;;
78013;SDS011;67222;50.182;8.734;2023-06-19T08:22:25;4.78;;;3.13;;
78013;SDS011;67222;50.182;8.734;2023-06-19T08:24:50;4.50;;;3.33;;
78013;SDS011;67222;50.182;8.734;2023-06-19T08:27:15;4.97;;;3.20;;
78013;SDS011;67222;50.182;8.734;2023-06-19T08:29:40;6.30;;;3.70;;
78013;SDS011;67222;50.182;8.734;2023-06-19T08:32:06;5.63;;;3.93;;
78013;SDS011;67222;50.182;8.734;2023-06-19T08:36:59;5.03;;;3.03;;
78013;SDS011;67222;50.182;8.734;2023-06-19T08:39:24;5.47;;;3.63;;
78013;SDS011;67222;50.182;8.734;2023-06-19T08:41:49;6.23;;;3.57;;
78013;SDS011;67222;50.182;8.734;2023-06-19T08:44:15;6.17;;;3.53;;
78013;SDS011;67222;50.182;8.734;2023-06-19T08:46:40;5.63;;;3.40;;
78013;SDS011;67222;50.182;8.734;2023-06-19T08:49:07;4.88;;;3.67;;
78013;SDS011;67222;50.182;8.734;2023-06-19T08:51:35;4.90;;;3.38;;
78013;SDS011;67222;50.182;8.734;2023-06-19T08:54:04;5.95;;;3.28;;
78013;SDS011;67222;50.182;8.734;2023-06-19T08:56:31;5.32;;;3.67;;
78013;SDS011;67222;50.182;8.734;2023-06-19T08:59:20;4.78;;;3.47;;
78013;SDS011;67222;50.182;8.734;2023-06-19T09:01:48;6.38;;;3.90;;
78013;SDS011;67222;50.182;8.734;2023-06-19T09:04:17;6.20;;;3.47;;
78013;SDS011;67222;50.182;8.734;2023-06-19T09:06:48;6.10;;;3.72;;
78013;SDS011;67222;50.182;8.734;2023-06-19T09:09:14;6.40;;;3.80;;
78013;SDS011;67222;50.182;8.734;2023-06-19T09:11:40;6.82;;;3.70;;
78013;SDS011;67222;50.182;8.734;2023-06-19T09:14:08;7.18;;;4.30;;
78013;SDS011;67222;50.182;8.734;2023-06-19T09:16:41;5.30;;;3.90;;
78013;SDS011;67222;50.182;8.734;2023-06-19T09:19:07;4.15;;;3.40;;
78013;SDS011;67222;50.182;8.734;2023-06-19T09:21:34;5.20;;;3.88;;
78013;SDS011;67222;50.182;8.734;2023-06-19T09:24:04;7.43;;;3.90;;
78013;SDS011;67222;50.182;8.734;2023-06-19T09:26:30;4.50;;;3.58;;
78013;SDS011;67222;50.182;8.734;2023-06-19T09:28:56;6.35;;;4.43;;
78013;SDS011;67222;50.182;8.734;2023-06-19T09:31:30;6.13;;;3.97;;
78013;SDS011;67222;50.182;8.734;2023-06-19T09:33:57;5.03;;;3.67;;
78013;SDS011;67222;50.182;8.734;2023-06-19T09:36:22;4.63;;;3.87;;
78013;SDS011;67222;50.182;8.734;2023-06-19T09:38:48;6.10;;;3.92;;
78013;SDS011;67222;50.182;8.734;2023-06-19T09:41:17;4.72;;;3.92;;
78013;SDS011;67222;50.182;8.734;2023-06-19T09:43:46;4.43;;;3.28;;
78013;SDS011;67222;50.182;8.734;2023-06-19T09:46:12;4.40;;;3.30;;
78013;SDS011;67222;50.182;8.734;2023-06-19T09:48:41;5.80;;;4.28;;
78013;SDS011;67222;50.182;8.734;2023-06-19T09:53:47;4.82;;;3.72;;
78013;SDS011;67222;50.182;8.734;2023-06-19T09:56:13;4.20;;;3.70;;
78013;SDS011;67222;50.182;8.734;2023-06-19T09:58:40;6.85;;;3.70;;
78013;SDS011;67222;50.182;8.734;2023-06-19T10:01:08;5.25;;;3.97;;
78013;SDS011;67222;50.182;8.734;2023-06-19T10:03:34;5.32;;;3.53;;
78013;SDS011;67222;50.182;8.734;2023-06-19T10:06:01;5.32;;;3.30;;
78013;SDS011;67222;50.182;8.734;2023-06-19T10:08:31;4.95;;;3.80;;
78013;SDS011;67222;50.182;8.734;2023-06-19T10:10:57;5.13;;;3.30;;
78013;SDS011;67222;50.182;8.734;2023-06-19T10:13:30;5.30;;;3.28;;
78013;SDS011;67222;50.182;8.734;2023-06-19T10:15:57;5.25;;;3.42;;
78013;SDS011;67222;50.182;8.734;2023-06-19T10:18:22;4.07;;;3.05;;
78013;SDS011;67222;50.182;8.734;2023-06-19T10:20:50;5.32;;;4.18;;
78013;SDS011;67222;50.182;8.734;2023-06-19T10:23:19;4.65;;;3.30;;
78013;SDS011;67222;50.182;8.734;2023-06-19T10:25:48;4.60;;;3.60;;
78013;SDS011;67222;50.182;8.734;2023-06-19T10:30:56;4.65;;;3.75;;
78013;SDS011;67222;50.182;8.734;2023-06-19T10:33:29;4.60;;;3.83;;
78013;SDS011;67222;50.182;8.734;2023-06-19T10:35:59;5.43;;;3.88;;
78013;SDS011;67222;50.182;8.734;2023-06-19T10:38:26;4.80;;;3.58;;
78013;SDS011;67222;50.182;8.734;2023-06-19T10:40:52;4.25;;;3.35;;
78013;SDS011;67222;50.182;8.734;2023-06-19T10:43:24;6.28;;;3.42;;
78013;SDS011;67222;50.182;8.734;2023-06-19T10:45:53;6.78;;;3.47;;
78013;SDS011;67222;50.182;8.734;2023-06-19T10:48:19;6.40;;;3.50;;
78013;SDS011;67222;50.182;8.734;2023-06-19T10:50:46;4.38;;;3.95;;
78013;SDS011;67222;50.182;8.734;2023-06-19T10:53:12;4.97;;;3.95;;
78013;SDS011;67222;50.182;8.734;2023-06-19T10:55:48;4.82;;;3.33;;
78013;SDS011;67222;50.182;8.734;2023-06-19T10:58:13;5.55;;;3.58;;
78013;SDS011;67222;50.182;8.734;2023-06-19T11:00:38;4.63;;;3.53;;
78013;SDS011;67222;50.182;8.734;2023-06-19T11:03:04;4.03;;;3.50;;
78013;SDS011;67222;50.182;8.734;2023-06-19T11:05:29;5.67;;;3.80;;
78013;SDS011;67222;50.182;8.734;2023-06-19T11:07:55;5.53;;;3.58;;
78013;SDS011;67222;50.182;8.734;2023-06-19T11:10:25;4.10;;;3.70;;
78013;SDS011;67222;50.182;8.734;2023-06-19T11:12:53;4.38;;;3.58;;
78013;SDS011;67222;50.182;8.734;2023-06-19T11:15:20;4.22;;;3.63;;
78013;SDS011;67222;50.182;8.734;2023-06-19T11:17:52;4.75;;;3.35;;
78013;SDS011;67222;50.182;8.734;2023-06-19T11:20:18;5.78;;;3.88;;
78013;SDS011;67222;50.182;8.734;2023-06-19T11:22:43;4.47;;;3.60;;
78013;SDS011;67222;50.182;8.734;2023-06-19T11:25:09;5.05;;;3.40;;
78013;SDS011;67222;50.182;8.734;2023-06-19T11:27:36;5.43;;;3.75;;
78013;SDS011;67222;50.182;8.734;2023-06-19T11:30:04;4.55;;;3.65;;
78013;SDS011;67222;50.182;8.734;2023-06-19T11:32:32;4.28;;;3.28;;
78013;SDS011;67222;50.182;8.734;2023-06-19T11:35:06;3.65;;;3.15;;
78013;SDS011;67222;50.182;8.734;2023-06-19T11:37:33;4.15;;;3.50;;
78013;SDS011;67222;50.182;8.734;2023-06-19T11:39:59;6.47;;;4.07;;
78013;SDS011;67222;50.182;8.734;2023-06-19T11:42:25;5.00;;;3.50;;
78013;SDS011;67222;50.182;8.734;2023-06-19T11:47:20;4.05;;;3.40;;
78013;SDS011;67222;50.182;8.734;2023-06-19T11:49:47;5.00;;;3.50;;
78013;SDS011;67222;50.182;8.734;2023-06-19T11:52:13;4.88;;;3.20;;
78013;SDS011;67222;50.182;8.734;2023-06-19T11:54:38;3.90;;;3.03;;
78013;SDS011;67222;50.182;8.734;2023-06-19T11:57:04;5.33;;;3.23;;
78013;SDS011;67222;50.182;8.734;2023-06-19T11:59:29;3.55;;;2.85;;
78013;SDS011;67222;50.182;8.734;2023-06-19T12:01:55;3.20;;;2.72;;
78013;SDS011;67222;50.182;8.734;2023-06-19T12:06:48;4.07;;;2.83;;
78013;SDS011;67222;50.182;8.734;2023-06-19T12:09:13;4.37;;;2.73;;
78013;SDS011;67222;50.182;8.734;2023-06-19T12:11:39;3.65;;;2.70;;
78013;SDS011;67222;50.182;8.734;2023-06-19T12:14:04;4.87;;;3.20;;
78013;SDS011;67222;50.182;8.734;2023-06-19T12:16:29;4.50;;;3.00;;
78013;SDS011;67222;50.182;8.734;2023-06-19T12:18:54;8.03;;;3.67;;
78013;SDS011;67222;50.182;8.734;2023-06-19T12:21:20;5.80;;;3.67;;
78013;SDS011;67222;50.182;8.734;2023-06-19T12:23:45;3.92;;;3.33;;
78013;SDS011;67222;50.182;8.734;2023-06-19T12:26:11;4.80;;;2.97;;
78013;SDS011;67222;50.182;8.734;2023-06-19T12:28:36;5.70;;;3.30;;
78013;SDS011;67222;50.182;8.734;2023-06-19T12:31:01;5.83;;;3.00;;
78013;SDS011;67222;50.182;8.734;2023-06-19T12:33:28;3.90;;;2.70;;
78013;SDS011;67222;50.182;8.734;2023-06-19T12:38:21;3.87;;;3.07;;
78013;SDS011;67222;50.182;8.734;2023-06-19T12:40:46;4.20;;;3.43;;
78013;SDS011;67222;50.182;8.734;2023-06-19T12:43:12;5.30;;;3.47;;
78013;SDS011;67222;50.182;8.734;2023-06-19T12:45:37;4.47;;;3.65;;
78013;SDS011;67222;50.182;8.734;2023-06-19T12:48:02;4.53;;;3.40;;
78013;SDS011;67222;50.182;8.734;2023-06-19T12:50:28;7.60;;;4.03;;
78013;SDS011;67222;50.182;8.734;2023-06-19T12:52:53;6.23;;;4.30;;
78013;SDS011;67222;50.182;8.734;2023-06-19T12:55:18;4.77;;;4.20;;
78013;SDS011;67222;50.182;8.734;2023-06-19T12:57:43;6.23;;;4.20;;
78013;SDS011;67222;50.182;8.734;2023-06-19T13:00:10;4.60;;;3.63;;
78013;SDS011;67222;50.182;8.734;2023-06-19T13:02:40;6.63;;;4.18;;
78013;SDS011;67222;50.182;8.734;2023-06-19T13:05:06;5.65;;;4.00;;
78013;SDS011;67222;50.182;8.734;2023-06-19T13:07:32;5.40;;;4.30;;
78013;SDS011;67222;50.182;8.734;2023-06-19T13:09:57;5.97;;;3.83;;
78013;SDS011;67222;50.182;8.734;2023-06-19T13:12:23;6.03;;;4.18;;
78013;SDS011;67222;50.182;8.734;2023-06-19T13:14:48;5.00;;;4.00;;
78013;SDS011;67222;50.182;8.734;2023-06-19T13:17:14;4.45;;;3.80;;
78013;SDS011;67222;50.182;8.734;2023-06-19T13:19:39;4.45;;;3.58;;
78013;SDS011;67222;50.182;8.734;2023-06-19T13:22:05;5.35;;;4.25;;
78013;SDS011;67222;50.182;8.734;2023-06-19T13:24:30;5.73;;;3.80;;
78013;SDS011;67222;50.182;8.734;2023-06-19T13:26:55;4.60;;;3.70;;
78013;SDS011;67222;50.182;8.734;2023-06-19T13:29:21;6.07;;;3.95;;
78013;SDS011;67222;50.182;8.734;2023-06-19T13:31:46;4.88;;;3.70;;
78013;SDS011;67222;50.182;8.734;2023-06-19T13:34:11;4.80;;;3.63;;
78013;SDS011;67222;50.182;8.734;2023-06-19T13:36:37;7.70;;;3.57;;
78013;SDS011;67222;50.182;8.734;2023-06-19T13:39:03;4.95;;;3.80;;
78013;SDS011;67222;50.182;8.734;2023-06-19T13:41:29;6.20;;;4.20;;
78013;SDS011;67222;50.182;8.734;2023-06-19T13:43:57;4.20;;;3.80;;
78013;SDS011;67222;50.182;8.734;2023-06-19T13:46:23;6.28;;;4.30;;
78013;SDS011;67222;50.182;8.734;2023-06-19T13:48:48;5.47;;;4.32;;
78013;SDS011;67222;50.182;8.734;2023-06-19T13:51:16;4.78;;;3.67;;
78013;SDS011;67222;50.182;8.734;2023-06-19T13:53:42;5.25;;;3.65;;
78013;SDS011;67222;50.182;8.734;2023-06-19T13:56:09;5.65;;;3.38;;
78013;SDS011;67222;50.182;8.734;2023-06-19T13:58:34;5.43;;;3.22;;
78013;SDS011;67222;50.182;8.734;2023-06-19T14:01:00;5.10;;;3.47;;
78013;SDS011;67222;50.182;8.734;2023-06-19T14:03:25;3.90;;;3.33;;
78013;SDS011;67222;50.182;8.734;2023-06-19T14:05:50;3.80;;;3.40;;
78013;SDS011;67222;50.182;8.734;2023-06-19T14:08:16;4.45;;;3.15;;
78013;SDS011;67222;50.182;8.734;2023-06-19T14:10:41;3.63;;;2.90;;
78013;SDS011;67222;50.182;8.734;2023-06-19T14:13:06;5.10;;;4.53;;
78013;SDS011;67222;50.182;8.734;2023-06-19T14:15:32;3.90;;;3.50;;
78013;SDS011;67222;50.182;8.734;2023-06-19T14:17:57;4.60;;;3.80;;
78013;SDS011;67222;50.182;8.734;2023-06-19T14:20:22;6.03;;;3.77;;
78013;SDS011;67222;50.182;8.734;2023-06-19T14:22:47;3.97;;;3.50;;
78013;SDS011;67222;50.182;8.734;2023-06-19T14:25:13;5.47;;;3.00;;
78013;SDS011;67222;50.182;8.734;2023-06-19T14:27:38;4.75;;;2.88;;
78013;SDS011;67222;50.182;8.734;2023-06-19T14:30:04;4.73;;;3.23;;
78013;SDS011;67222;50.182;8.734;2023-06-19T14:32:29;4.63;;;2.80;;
78013;SDS011;67222;50.182;8.734;2023-06-19T14:34:55;4.33;;;2.70;;
78013;SDS011;67222;50.182;8.734;2023-06-19T14:37:20;3.73;;;2.90;;
78013;SDS011;67222;50.182;8.734;2023-06-19T14:39:45;5.05;;;3.13;;
78013;SDS011;67222;50.182;8.734;2023-06-19T14:42:11;3.28;;;2.60;;
78013;SDS011;67222;50.182;8.734;2023-06-19T14:44:36;3.70;;;2.90;;
78013;SDS011;67222;50.182;8.734;2023-06-19T14:47:02;5.00;;;2.97;;
78013;SDS011;67222;50.182;8.734;2023-06-19T14:49:27;5.40;;;3.00;;
78013;SDS011;67222;50.182;8.734;2023-06-19T14:51:53;6.87;;;2.93;;
78013;SDS011;67222;50.182;8.734;2023-06-19T14:54:19;5.13;;;2.80;;
78013;SDS011;67222;50.182;8.734;2023-06-19T14:56:44;3.53;;;2.70;;
78013;SDS011;67222;50.182;8.734;2023-06-19T14:59:12;3.58;;;2.42;;
78013;SDS011;67222;50.182;8.734;2023-06-19T15:01:38;3.83;;;2.58;;
78013;SDS011;67222;50.182;8.734;2023-06-19T15:04:03;3.00;;;2.60;;
78013;SDS011;67222;50.182;8.734;2023-06-19T15:06:28;4.17;;;2.47;;
78013;SDS011;67222;50.182;8.734;2023-06-19T15:08:54;3.23;;;2.50;;
78013;SDS011;67222;50.182;8.734;2023-06-19T15:11:19;3.60;;;2.60;;
78013;SDS011;67222;50.182;8.734;2023-06-19T15:13:45;4.20;;;2.90;;
78013;SDS011;67222;50.182;8.734;2023-06-19T15:16:10;4.13;;;2.60;;
78013;SDS011;67222;50.182;8.734;2023-06-19T15:18:37;3.15;;;2.60;;
78013;SDS011;67222;50.182;8.734;2023-06-19T15:21:03;4.55;;;2.60;;
78013;SDS011;67222;50.182;8.734;2023-06-19T15:23:31;3.90;;;2.53;;
78013;SDS011;67222;50.182;8.734;2023-06-19T15:25:57;5.27;;;3.07;;
78013;SDS011;67222;50.182;8.734;2023-06-19T15:28:22;3.65;;;2.75;;
78013;SDS011;67222;50.182;8.734;2023-06-19T15:30:47;3.90;;;2.90;;
78013;SDS011;67222;50.182;8.734;2023-06-19T15:33:13;3.53;;;2.58;;
78013;SDS011;67222;50.182;8.734;2023-06-19T15:35:38;3.00;;;2.25;;
78013;SDS011;67222;50.182;8.734;2023-06-19T15:38:04;3.55;;;2.50;;
78013;SDS011;67222;50.182;8.734;2023-06-19T15:40:30;5.00;;;2.27;;
78013;SDS011;67222;50.182;8.734;2023-06-19T15:42:55;4.55;;;2.70;;
78013;SDS011;67222;50.182;8.734;2023-06-19T15:45:20;4.50;;;2.37;;
78013;SDS011;67222;50.182;8.734;2023-06-19T15:47:46;3.67;;;2.65;;
78013;SDS011;67222;50.182;8.734;2023-06-19T15:50:11;3.60;;;2.38;;
78013;SDS011;67222;50.182;8.734;2023-06-19T15:52:37;3.60;;;2.53;;
78013;SDS011;67222;50.182;8.734;2023-06-19T15:55:02;3.55;;;2.38;;
78013;SDS011;67222;50.182;8.734;2023-06-19T15:57:28;3.30;;;2.45;;
78013;SDS011;67222;50.182;8.734;2023-06-19T15:59:54;4.40;;;2.28;;
78013;SDS011;67222;50.182;8.734;2023-06-19T16:02:20;3.65;;;2.45;;
78013;SDS011;67222;50.182;8.734;2023-06-19T16:04:46;4.07;;;2.43;;
78013;SDS011;67222;50.182;8.734;2023-06-19T16:07:11;4.00;;;2.33;;
78013;SDS011;67222;50.182;8.734;2023-06-19T16:09:36;4.38;;;2.50;;
78013;SDS011;67222;50.182;8.734;2023-06-19T16:12:02;2.88;;;2.15;;
78013;SDS011;67222;50.182;8.734;2023-06-19T16:14:28;4.88;;;2.65;;
78013;SDS011;67222;50.182;8.734;2023-06-19T16:16:55;3.75;;;2.33;;
78013;SDS011;67222;50.182;8.734;2023-06-19T16:19:20;4.23;;;3.03;;
78013;SDS011;67222;50.182;8.734;2023-06-19T16:21:45;5.77;;;2.53;;
78013;SDS011;67222;50.182;8.734;2023-06-19T16:24:11;3.65;;;2.50;;
78013;SDS011;67222;50.182;8.734;2023-06-19T16:26:36;3.85;;;2.38;;
78013;SDS011;67222;50.182;8.734;2023-06-19T16:29:02;3.88;;;2.47;;
78013;SDS011;67222;50.182;8.734;2023-06-19T16:31:28;3.75;;;2.72;;
78013;SDS011;67222;50.182;8.734;2023-06-19T16:33:53;4.17;;;2.53;;
78013;SDS011;67222;50.182;8.734;2023-06-19T16:36:18;3.65;;;2.38;;
78013;SDS011;67222;50.182;8.734;2023-06-19T16:38:45;3.97;;;2.30;;
78013;SDS011;67222;50.182;8.734;2023-06-19T16:41:10;3.55;;;2.20;;
78013;SDS011;67222;50.182;8.734;2023-06-19T16:43:37;4.60;;;2.88;;
78013;SDS011;67222;50.182;8.734;2023-06-19T16:46:03;4.13;;;2.72;;
78013;SDS011;67222;50.182;8.734;2023-06-19T16:48:28;4.33;;;2.50;;
78013;SDS011;67222;50.182;8.734;2023-06-19T16:50:53;4.07;;;2.80;;
78013;SDS011;67222;50.182;8.734;2023-06-19T16:53:18;4.47;;;2.87;;
78013;SDS011;67222;50.182;8.734;2023-06-19T16:55:44;3.70;;;2.87;;
78013;SDS011;67222;50.182;8.734;2023-06-19T16:58:09;3.90;;;3.07;;
78013;SDS011;67222;50.182;8.734;2023-06-19T17:00:34;3.27;;;2.73;;
78013;SDS011;67222;50.182;8.734;2023-06-19T17:03:00;4.73;;;2.77;;
78013;SDS011;67222;50.182;8.734;2023-06-19T17:05:25;3.75;;;2.53;;
78013;SDS011;67222;50.182;8.734;2023-06-19T17:07:51;4.88;;;2.50;;
78013;SDS011;67222;50.182;8.734;2023-06-19T17:10:17;3.45;;;2.45;;
78013;SDS011;67222;50.182;8.734;2023-06-19T17:12:43;3.53;;;2.40;;
78013;SDS011;67222;50.182;8.734;2023-06-19T17:15:09;4.43;;;2.90;;
78013;SDS011;67222;50.182;8.734;2023-06-19T17:17:34;3.58;;;2.70;;
78013;SDS011;67222;50.182;8.734;2023-06-19T17:20:00;4.07;;;2.97;;
78013;SDS011;67222;50.182;8.734;2023-06-19T17:22:25;4.93;;;3.07;;
78013;SDS011;67222;50.182;8.734;2023-06-19T17:24:50;3.75;;;2.85;;
78013;SDS011;67222;50.182;8.734;2023-06-19T17:27:16;4.83;;;2.70;;
78013;SDS011;67222;50.182;8.734;2023-06-19T17:29:41;3.70;;;2.60;;
78013;SDS011;67222;50.182;8.734;2023-06-19T17:32:06;4.20;;;2.40;;
78013;SDS011;67222;50.182;8.734;2023-06-19T17:34:33;4.32;;;2.50;;
78013;SDS011;67222;50.182;8.734;2023-06-19T17:36:59;4.03;;;2.80;;
78013;SDS011;67222;50.182;8.734;2023-06-19T17:39:24;4.50;;;2.90;;
78013;SDS011;67222;50.182;8.734;2023-06-19T17:41:49;5.03;;;2.87;;
78013;SDS011;67222;50.182;8.734;2023-06-19T17:44:15;4.32;;;2.60;;
78013;SDS011;67222;50.182;8.734;2023-06-19T17:46:40;4.57;;;2.70;;
78013;SDS011;67222;50.182;8.734;2023-06-19T17:49:06;4.57;;;2.67;;
78013;SDS011;67222;50.182;8.734;2023-06-19T17:51:31;3.70;;;2.72;;
78013;SDS011;67222;50.182;8.734;2023-06-19T17:53:57;3.33;;;2.70;;
78013;SDS011;67222;50.182;8.734;2023-06-19T17:56:22;6.10;;;3.10;;
78013;SDS011;67222;50.182;8.734;2023-06-19T17:58:48;4.15;;;2.90;;
78013;SDS011;67222;50.182;8.734;2023-06-19T18:01:13;3.23;;;2.70;;
78013;SDS011;67222;50.182;8.734;2023-06-19T18:03:39;5.43;;;3.00;;
78013;SDS011;67222;50.182;8.734;2023-06-19T18:06:05;5.55;;;3.20;;
78013;SDS011;67222;50.182;8.734;2023-06-19T18:08:30;4.83;;;3.23;;
78013;SDS011;67222;50.182;8.734;2023-06-19T18:10:55;3.47;;;2.77;;
78013;SDS011;67222;50.182;8.734;2023-06-19T18:13:22;3.15;;;2.75;;
78013;SDS011;67222;50.182;8.734;2023-06-19T18:15:48;6.40;;;2.95;;
78013;SDS011;67222;50.182;8.734;2023-06-19T18:18:13;3.83;;;2.92;;
78013;SDS011;67222;50.182;8.734;2023-06-19T18:20:38;5.57;;;2.80;;
78013;SDS011;67222;50.182;8.734;2023-06-19T18:23:05;4.57;;;3.03;;
78013;SDS011;67222;50.182;8.734;2023-06-19T18:25:31;4.15;;;2.60;;
78013;SDS011;67222;50.182;8.734;2023-06-19T18:27:56;4.63;;;2.83;;
78013;SDS011;67222;50.182;8.734;2023-06-19T18:30:21;3.55;;;2.97;;
78013;SDS011;67222;50.182;8.734;2023-06-19T18:32:47;5.25;;;3.13;;
78013;SDS011;67222;50.182;8.734;2023-06-19T18:35:12;3.93;;;2.80;;
78013;SDS011;67222;50.182;8.734;2023-06-19T18:37:37;3.90;;;2.77;;
78013;SDS011;67222;50.182;8.734;2023-06-19T18:40:03;3.92;;;3.53;;
78013;SDS011;67222;50.182;8.734;2023-06-19T18:42:29;3.70;;;3.10;;
78013;SDS011;67222;50.182;8.734;2023-06-19T18:44:56;4.63;;;3.05;;
78013;SDS011;67222;50.182;8.734;2023-06-19T18:47:21;4.18;;;3.25;;
78013;SDS011;67222;50.182;8.734;2023-06-19T18:49:47;5.67;;;3.27;;
78013;SDS011;67222;50.182;8.734;2023-06-19T18:52:14;4.05;;;2.83;;
78013;SDS011;67222;50.182;8.734;2023-06-19T18:54:39;5.83;;;3.23;;
78013;SDS011;67222;50.182;8.734;2023-06-19T18:57:05;3.63;;;2.87;;
78013;SDS011;67222;50.182;8.734;2023-06-19T18:59:30;4.88;;;3.38;;
78013;SDS011;67222;50.182;8.734;2023-06-19T19:01:56;4.45;;;3.22;;
78013;SDS011;67222;50.182;8.734;2023-06-19T19:04:21;4.60;;;3.20;;
78013;SDS011;67222;50.182;8.734;2023-06-19T19:06:46;4.00;;;3.03;;
78013;SDS011;67222;50.182;8.734;2023-06-19T19:09:12;5.37;;;3.43;;
78013;SDS011;67222;50.182;8.734;2023-06-19T19:11:37;4.13;;;2.90;;
78013;SDS011;67222;50.182;8.734;2023-06-19T19:14:02;4.27;;;3.00;;
78013;SDS011;67222;50.182;8.734;2023-06-19T19:16:28;4.03;;;2.85;;
78013;SDS011;67222;50.182;8.734;2023-06-19T19:18:53;4.20;;;3.13;;
78013;SDS011;67222;50.182;8.734;2023-06-19T19:21:18;4.30;;;2.90;;
78013;SDS011;67222;50.182;8.734;2023-06-19T19:23:43;5.53;;;3.57;;
78013;SDS011;67222;50.182;8.734;2023-06-19T19:26:09;4.63;;;3.20;;